Time;durP1;ratioP1;P1;durP2;ratioP2;P2;SDS_P1;SDS_P2;PMS_P1;PMS_P2;Temp;Humidity;BMP_temperature;BMP_pressure;BME280_temperature;BME280_humidity;BME280_pressure;Samples;Min_cycle;Max_cycle;Signal;HPM_P1;HPM_P2
2022/04/27 00:01:09;;;;;;;3.30;2.50;;;12.50;79.90;;;;;;5094940;28;20119;-77
2022/04/27 00:03:35;;;;;;;3.83;3.15;;;12.50;79.90;;;;;;5094640;28;20028;-77
2022/04/27 00:06:01;;;;;;;4.03;3.03;;;12.50;79.90;;;;;;5096589;28;20050;-76
2022/04/27 00:08:26;;;;;;;4.47;3.60;;;12.50;80.00;;;;;;5113205;28;20588;-76
2022/04/27 00:10:52;;;;;;;4.05;3.35;;;12.50;80.10;;;;;;5114263;28;20034;-77
2022/04/27 00:13:18;;;;;;;3.85;3.08;;;12.50;80.10;;;;;;5111946;28;20024;-77
2022/04/27 00:15:44;;;;;;;3.95;3.17;;;12.50;80.00;;;;;;5112203;28;20055;-78
2022/04/27 00:18:10;;;;;;;6.25;4.07;;;12.50;79.80;;;;;;5114239;28;20035;-76
2022/04/27 00:20:35;;;;;;;5.10;4.10;;;12.50;79.70;;;;;;5114153;28;20031;-78
2022/04/27 00:23:01;;;;;;;5.13;3.88;;;12.50;79.70;;;;;;5100458;28;20016;-75
2022/04/27 00:25:27;;;;;;;4.03;3.30;;;12.50;79.70;;;;;;5113923;28;20129;-77
2022/04/27 00:27:53;;;;;;;4.75;3.55;;;12.50;79.80;;;;;;5114776;28;20023;-78
2022/04/27 00:30:18;;;;;;;4.60;3.58;;;12.50;79.80;;;;;;5112645;28;20488;-77
2022/04/27 00:32:44;;;;;;;3.97;3.40;;;12.40;79.80;;;;;;5095813;28;20020;-75
2022/04/27 00:35:10;;;;;;;3.40;2.97;;;12.40;79.90;;;;;;5094509;28;20024;-77
2022/04/27 00:37:36;;;;;;;3.50;2.95;;;12.40;80.00;;;;;;5110231;28;20495;-78
2022/04/27 00:40:02;;;;;;;4.65;3.35;;;12.40;80.00;;;;;;5092470;28;20028;-75
2022/04/27 00:42:28;;;;;;;5.38;3.67;;;12.50;80.00;;;;;;5104165;28;20024;-75
2022/04/27 00:44:54;;;;;;;4.70;3.83;;;12.50;79.90;;;;;;5112876;28;20086;-76
2022/04/27 00:47:20;;;;;;;5.13;3.53;;;12.40;79.70;;;;;;5111541;28;20472;-77
2022/04/27 00:49:48;;;;;;;4.80;3.95;;;12.40;79.50;;;;;;5114341;28;20028;-77
2022/04/27 00:52:15;;;;;;;5.70;3.20;;;12.30;79.30;;;;;;5099408;28;20027;-78
2022/04/27 00:54:42;;;;;;;4.20;2.95;;;12.30;79.20;;;;;;5095869;28;20057;-76
2022/04/27 00:57:08;;;;;;;6.50;3.90;;;12.30;79.20;;;;;;5095834;28;20370;-76
2022/04/27 00:59:34;;;;;;;4.90;3.40;;;12.20;79.20;;;;;;5104442;28;20051;-75
2022/04/27 01:02:01;;;;;;;6.35;3.97;;;12.20;79.30;;;;;;5096129;28;20036;-76
2022/04/27 01:04:27;;;;;;;4.00;3.30;;;12.10;79.30;;;;;;5110455;28;20504;-78
2022/04/27 01:06:53;;;;;;;4.03;3.35;;;12.10;79.40;;;;;;5106311;28;20453;-77
2022/04/27 01:09:20;;;;;;;5.45;3.97;;;12.10;79.40;;;;;;5112512;28;20024;-77
2022/04/27 01:11:46;;;;;;;8.02;4.18;;;12.10;79.50;;;;;;5112551;28;20023;-76
2022/04/27 01:14:12;;;;;;;6.28;4.03;;;12.10;79.60;;;;;;5112568;28;20107;-78
2022/04/27 01:16:37;;;;;;;5.25;4.05;;;12.10;79.70;;;;;;5113612;28;20488;-78
2022/04/27 01:19:05;;;;;;;5.53;4.35;;;12.10;79.80;;;;;;5095821;28;20027;-77
2022/04/27 01:21:31;;;;;;;4.88;3.40;;;12.10;79.80;;;;;;5113570;28;20031;-76
2022/04/27 01:23:56;;;;;;;4.00;3.60;;;12.00;79.80;;;;;;5111928;28;20023;-75
2022/04/27 01:26:22;;;;;;;4.45;4.05;;;12.10;80.00;;;;;;5111388;28;20026;-77
2022/04/27 01:28:48;;;;;;;4.88;4.03;;;12.10;80.00;;;;;;5113484;28;20019;-77
2022/04/27 01:31:14;;;;;;;5.03;4.00;;;12.10;80.10;;;;;;5112212;28;20122;-76
2022/04/27 01:33:40;;;;;;;5.28;3.92;;;12.10;80.20;;;;;;5102571;28;20028;-76
2022/04/27 01:36:08;;;;;;;6.93;4.75;;;12.10;80.20;;;;;;5101643;28;20062;-76
2022/04/27 01:38:38;;;;;;;5.00;3.92;;;12.10;80.20;;;;;;5111772;28;20028;-77
2022/04/27 01:41:05;;;;;;;6.00;4.68;;;12.10;80.20;;;;;;5112592;28;20036;-76
2022/04/27 01:43:32;;;;;;;6.95;5.53;;;12.10;80.30;;;;;;5112274;28;20057;-77
2022/04/27 01:45:59;;;;;;;6.72;4.88;;;12.10;80.30;;;;;;5111272;28;20020;-76
2022/04/27 01:48:26;;;;;;;7.28;5.55;;;12.10;80.50;;;;;;5110966;28;20023;-76
2022/04/27 01:50:52;;;;;;;7.50;5.60;;;12.10;80.50;;;;;;5102813;28;20077;-78
2022/04/27 01:56:03;;;;;;;4.60;4.15;;;12.20;80.40;;;;;;5099469;28;20122;-76
2022/04/27 01:58:29;;;;;;;6.07;5.10;;;12.20;80.30;;;;;;5090847;28;20036;-77
2022/04/27 02:00:55;;;;;;;5.47;4.93;;;12.20;80.40;;;;;;5102748;28;20024;-77
2022/04/27 02:03:21;;;;;;;5.25;4.53;;;12.20;80.40;;;;;;5110043;28;20024;-77
2022/04/27 02:05:48;;;;;;;7.95;4.55;;;12.20;80.30;;;;;;5100010;28;20394;-75
2022/04/27 02:08:14;;;;;;;5.20;4.70;;;12.20;80.30;;;;;;5095938;28;20024;-78
2022/04/27 02:10:40;;;;;;;6.28;4.90;;;12.20;80.30;;;;;;5092416;28;20065;-77
2022/04/27 02:13:09;;;;;;;7.05;5.55;;;12.20;80.30;;;;;;5096957;28;20044;-76
2022/04/27 02:15:36;;;;;;;7.35;5.38;;;12.20;80.20;;;;;;5112983;28;20027;-76
2022/04/27 02:18:02;;;;;;;8.40;6.65;;;12.10;80.20;;;;;;5113043;28;20064;-76
2022/04/27 02:20:29;;;;;;;7.32;6.10;;;12.10;80.20;;;;;;5098408;28;20039;-76
2022/04/27 02:22:56;;;;;;;7.63;5.78;;;12.10;80.20;;;;;;5107327;28;20049;-77
2022/04/27 02:25:25;;;;;;;10.07;6.45;;;12.10;80.20;;;;;;5098195;28;20036;-75
2022/04/27 02:27:50;;;;;;;7.60;5.75;;;12.10;80.30;;;;;;5112933;28;20022;-76
2022/04/27 02:30:18;;;;;;;6.43;4.72;;;12.20;80.50;;;;;;5110106;28;20385;-78
2022/04/27 02:32:46;;;;;;;6.93;5.78;;;12.20;80.60;;;;;;5109551;28;20027;-77
2022/04/27 02:35:12;;;;;;;8.18;6.45;;;12.20;80.70;;;;;;5103303;28;20469;-77
2022/04/27 02:37:39;;;;;;;8.70;6.68;;;12.20;80.60;;;;;;5107790;28;20032;-79
2022/04/27 02:40:08;;;;;;;7.03;5.68;;;12.20;80.60;;;;;;5094614;28;20024;-78
2022/04/27 02:42:33;;;;;;;8.10;6.43;;;12.20;80.60;;;;;;5094249;28;20024;-77
2022/04/27 02:44:59;;;;;;;9.82;7.35;;;12.30;80.80;;;;;;5111135;28;20503;-78
2022/04/27 02:47:25;;;;;;;9.30;6.97;;;12.20;80.80;;;;;;5105824;28;20035;-77
2022/04/27 02:52:35;;;;;;;12.20;6.97;;;12.30;80.70;;;;;;5115669;28;20092;-77
2022/04/27 02:55:01;;;;;;;9.77;6.88;;;12.30;80.50;;;;;;5099000;28;20055;-76
2022/04/27 02:57:26;;;;;;;8.75;6.70;;;12.30;80.40;;;;;;5097114;28;20024;-75
2022/04/27 02:59:52;;;;;;;9.40;7.28;;;12.20;80.20;;;;;;5094819;28;20117;-78
2022/04/27 03:02:18;;;;;;;8.73;6.95;;;12.20;80.20;;;;;;5097355;28;20055;-77
2022/04/27 03:04:44;;;;;;;9.00;7.35;;;12.20;80.20;;;;;;5097226;28;20097;-78
2022/04/27 03:07:09;;;;;;;10.52;7.22;;;12.20;80.30;;;;;;5100659;28;20028;-78
2022/04/27 03:09:36;;;;;;;8.85;7.10;;;12.20;80.40;;;;;;5110410;28;20103;-76
2022/04/27 03:12:02;;;;;;;10.40;8.30;;;12.20;80.40;;;;;;5115577;28;20024;-78
2022/04/27 03:14:31;;;;;;;10.52;7.95;;;12.20;80.30;;;;;;5114369;28;20445;-77
2022/04/27 03:16:57;;;;;;;10.35;8.40;;;12.20;80.20;;;;;;5115274;28;20088;-76
2022/04/27 03:19:23;;;;;;;10.07;8.23;;;12.20;80.30;;;;;;5108931;28;20035;-75
2022/04/27 03:21:50;;;;;;;12.93;9.85;;;12.20;80.20;;;;;;5094460;28;20062;-77
2022/04/27 03:24:16;;;;;;;13.27;10.20;;;12.10;80.20;;;;;;5094984;28;20028;-77
2022/04/27 03:26:42;;;;;;;13.70;9.63;;;12.10;80.20;;;;;;5102507;28;20362;-78
2022/04/27 03:29:07;;;;;;;15.73;10.85;;;12.10;80.30;;;;;;5114726;28;20024;-76
2022/04/27 03:31:33;;;;;;;18.92;13.30;;;12.10;80.30;;;;;;5115943;28;20056;-77
2022/04/27 03:33:59;;;;;;;20.38;13.10;;;12.10;80.30;;;;;;5114496;28;20080;-76
2022/04/27 03:36:25;;;;;;;14.18;10.40;;;12.10;80.50;;;;;;5115922;28;20473;-76
2022/04/27 03:38:52;;;;;;;21.10;14.98;;;12.20;80.60;;;;;;5112416;28;20024;-75
2022/04/27 03:41:20;;;;;;;19.98;14.75;;;12.20;80.50;;;;;;5095343;28;20039;-76
2022/04/27 03:43:50;;;;;;;31.92;15.77;;;12.20;80.50;;;;;;5094077;28;20493;-78
2022/04/27 03:46:16;;;;;;;21.25;14.70;;;12.20;80.30;;;;;;5098515;28;20546;-78
2022/04/27 03:48:42;;;;;;;21.48;15.10;;;12.20;80.50;;;;;;5111461;28;20114;-76
2022/04/27 03:51:08;;;;;;;17.80;12.63;;;12.20;80.50;;;;;;5111188;28;20019;-76
2022/04/27 03:53:34;;;;;;;20.40;14.23;;;12.20;80.60;;;;;;5095193;28;20016;-78
2022/04/27 03:56:00;;;;;;;17.42;12.88;;;12.20;80.60;;;;;;5109839;28;20028;-76
2022/04/27 03:58:26;;;;;;;14.40;11.13;;;12.20;80.70;;;;;;5112851;28;20499;-77
2022/04/27 04:00:52;;;;;;;13.77;10.00;;;12.20;80.70;;;;;;5094832;28;20032;-76
2022/04/27 04:03:18;;;;;;;19.73;13.63;;;12.20;80.80;;;;;;5100010;28;20395;-77
2022/04/27 04:05:44;;;;;;;19.08;14.05;;;12.20;80.80;;;;;;5110427;28;20027;-76
2022/04/27 04:08:09;;;;;;;14.82;11.55;;;12.20;80.80;;;;;;5113069;28;20468;-76
2022/04/27 04:10:35;;;;;;;16.67;12.20;;;12.20;80.80;;;;;;5108079;28;20028;-75
2022/04/27 04:13:02;;;;;;;20.92;13.55;;;12.20;80.80;;;;;;5101831;28;20024;-77
2022/04/27 04:15:28;;;;;;;21.58;14.57;;;12.20;80.70;;;;;;5112923;28;20050;-78
2022/04/27 04:17:54;;;;;;;18.48;13.20;;;12.20;80.60;;;;;;5113670;28;20031;-76
2022/04/27 04:20:20;;;;;;;18.83;13.85;;;12.20;80.60;;;;;;5113663;28;20035;-76
2022/04/27 04:22:47;;;;;;;19.00;13.13;;;12.20;80.70;;;;;;5114945;28;20026;-76
2022/04/27 04:30:42;;;;;;;18.63;13.40;;;12.20;80.70;;;;;;5094431;28;20114;-76
2022/04/27 04:33:09;;;;;;;17.45;12.68;;;12.20;80.70;;;;;;5097354;28;20107;-76
2022/04/27 04:35:36;;;;;;;15.60;11.18;;;12.20;80.80;;;;;;5112592;28;20080;-76
2022/04/27 04:38:04;;;;;;;18.25;12.18;;;12.20;80.80;;;;;;5104150;28;20031;-77
2022/04/27 04:40:30;;;;;;;16.63;12.25;;;12.20;80.90;;;;;;5102090;28;20028;-78
2022/04/27 04:42:56;;;;;;;18.63;13.52;;;12.20;81.00;;;;;;5114320;28;20051;-75
2022/04/27 04:45:23;;;;;;;19.90;13.38;;;12.20;81.00;;;;;;5112806;28;20038;-76
2022/04/27 04:47:49;;;;;;;19.77;14.15;;;12.30;81.10;;;;;;5095393;28;20024;-75
2022/04/27 04:50:15;;;;;;;19.13;13.43;;;12.30;81.00;;;;;;5108802;27;20012;-75
2022/04/27 04:52:41;;;;;;;21.50;14.38;;;12.30;81.00;;;;;;5105985;28;20414;-76
2022/04/27 04:55:08;;;;;;;19.60;13.50;;;12.30;81.00;;;;;;5098794;28;20031;-77
2022/04/27 04:57:34;;;;;;;22.10;14.80;;;12.30;80.80;;;;;;5105356;28;20024;-76
2022/04/27 05:00:00;;;;;;;21.52;14.18;;;12.30;80.70;;;;;;5112650;28;20041;-75
2022/04/27 05:02:29;;;;;;;17.52;12.38;;;12.30;80.70;;;;;;5104116;28;20024;-77
2022/04/27 05:04:55;;;;;;;17.60;12.77;;;12.30;80.80;;;;;;5106692;28;20028;-77
2022/04/27 05:07:20;;;;;;;18.85;14.13;;;12.30;81.00;;;;;;5109983;28;20046;-76
2022/04/27 05:09:46;;;;;;;18.02;13.63;;;12.30;81.00;;;;;;5104569;28;20073;-77
2022/04/27 05:12:12;;;;;;;18.75;13.52;;;12.40;81.20;;;;;;5111941;28;20023;-77
2022/04/27 05:14:38;;;;;;;17.95;13.18;;;12.40;81.30;;;;;;5096914;28;20028;-77
2022/04/27 05:17:04;;;;;;;17.90;13.85;;;12.40;81.30;;;;;;5099881;28;20098;-76
2022/04/27 05:19:30;;;;;;;20.27;13.80;;;12.40;81.40;;;;;;5106375;28;20031;-77
2022/04/27 05:21:56;;;;;;;18.58;13.15;;;12.50;81.50;;;;;;5108029;28;20070;-75
2022/04/27 05:24:21;;;;;;;18.48;13.25;;;12.50;81.70;;;;;;5109043;28;20389;-79
2022/04/27 05:26:47;;;;;;;19.58;14.48;;;12.60;81.90;;;;;;5095324;28;20081;-76
2022/04/27 05:31:58;;;;;;;19.67;14.65;;;12.70;82.00;;;;;;5109297;28;20034;-78
2022/04/27 05:34:33;;;;;;;20.10;14.45;;;12.70;81.90;;;;;;5112868;28;20151;-75
2022/04/27 05:36:59;;;;;;;29.23;18.85;;;12.80;81.80;;;;;;5111654;28;20397;-76
2022/04/27 05:39:25;;;;;;;27.27;17.65;;;12.80;81.90;;;;;;5112870;28;20396;-75
2022/04/27 05:41:55;;;;;;;22.98;16.17;;;12.90;81.90;;;;;;5112839;28;20027;-77
2022/04/27 05:44:25;;;;;;;23.00;16.77;;;12.90;81.70;;;;;;5112207;28;20039;-75
2022/04/27 05:46:52;;;;;;;26.20;16.00;;;12.90;81.60;;;;;;5109430;28;20015;-77
2022/04/27 05:49:19;;;;;;;22.95;15.93;;;13.00;81.60;;;;;;5106805;28;20030;-77
2022/04/27 05:51:45;;;;;;;21.52;15.45;;;13.00;81.50;;;;;;5100742;28;20116;-76
2022/04/27 05:54:13;;;;;;;21.05;15.73;;;13.00;81.50;;;;;;5111257;28;20069;-76
2022/04/27 05:56:40;;;;;;;25.92;15.88;;;13.00;81.40;;;;;;5104741;28;20042;-76
2022/04/27 05:59:07;;;;;;;21.98;14.68;;;13.10;81.70;;;;;;5113010;28;20034;-75
2022/04/27 06:01:33;;;;;;;21.10;15.25;;;13.20;81.80;;;;;;5112275;28;20031;-77
2022/04/27 06:03:59;;;;;;;24.92;17.40;;;13.20;81.90;;;;;;5097708;28;20115;-77
2022/04/27 06:06:25;;;;;;;19.60;14.93;;;13.30;81.90;;;;;;5106172;28;20539;-76
2022/04/27 06:08:51;;;;;;;22.27;15.70;;;13.30;81.80;;;;;;5107672;28;20114;-77
2022/04/27 06:11:19;;;;;;;23.42;16.17;;;13.30;81.70;;;;;;5100181;28;20059;-75
2022/04/27 06:13:48;;;;;;;21.55;14.95;;;13.40;81.60;;;;;;5115529;28;20038;-75
2022/04/27 06:16:15;;;;;;;24.25;16.98;;;13.40;81.50;;;;;;5116229;28;20430;-75
2022/04/27 06:18:41;;;;;;;25.30;18.20;;;13.40;81.30;;;;;;5116589;28;20028;-76
2022/04/27 06:21:08;;;;;;;28.08;20.05;;;13.40;81.40;;;;;;5116540;28;20020;-77
2022/04/27 06:23:35;;;;;;;22.40;16.90;;;13.40;81.40;;;;;;5119498;28;20028;-80
2022/04/27 06:26:02;;;;;;;25.17;16.73;;;13.50;81.70;;;;;;5109943;28;20024;-74
2022/04/27 06:28:28;;;;;;;27.20;17.67;;;13.50;82.00;;;;;;5122142;28;20020;-75
2022/04/27 06:30:54;;;;;;;24.55;16.27;;;13.60;82.20;;;;;;5123562;28;20030;-76
2022/04/27 06:33:19;;;;;;;25.90;18.75;;;13.60;82.20;;;;;;5127487;28;20387;-75
2022/04/27 06:35:46;;;;;;;21.45;15.88;;;13.70;82.10;;;;;;5113778;28;20055;-75
2022/04/27 06:38:12;;;;;;;24.25;16.95;;;13.80;82.20;;;;;;5103132;28;20035;-78
2022/04/27 06:40:38;;;;;;;21.50;15.50;;;13.90;82.50;;;;;;5096685;28;20024;-78
2022/04/27 06:43:03;;;;;;;23.70;16.83;;;14.00;83.00;;;;;;5096319;28;20389;-77
2022/04/27 06:45:31;;;;;;;20.17;15.35;;;14.10;83.20;;;;;;5115481;28;20055;-77
2022/04/27 06:47:59;;;;;;;18.67;14.60;;;14.20;83.10;;;;;;5098148;28;20024;-77
2022/04/27 06:50:25;;;;;;;19.98;15.73;;;14.30;83.70;;;;;;5109859;28;20544;-75
2022/04/27 06:52:52;;;;;;;21.38;16.50;;;14.40;83.10;;;;;;5101192;28;20150;-76
2022/04/27 06:55:18;;;;;;;22.05;17.17;;;14.50;82.70;;;;;;5095747;28;20024;-78
2022/04/27 06:57:44;;;;;;;22.05;15.52;;;14.50;82.30;;;;;;5096348;28;20032;-76
2022/04/27 07:00:12;;;;;;;21.38;15.68;;;14.60;81.90;;;;;;5114752;28;20038;-75
2022/04/27 07:02:39;;;;;;;20.85;16.25;;;14.60;81.50;;;;;;5115169;28;20027;-76
2022/04/27 07:05:06;;;;;;;25.40;16.35;;;14.60;81.20;;;;;;5102567;28;20028;-76
2022/04/27 07:07:32;;;;;;;23.63;16.92;;;14.60;80.70;;;;;;5110661;28;20425;-76
2022/04/27 07:09:58;;;;;;;22.63;15.73;;;14.60;80.30;;;;;;5107596;28;20020;-75
2022/04/27 07:12:25;;;;;;;21.00;15.88;;;14.50;80.00;;;;;;5112595;28;20106;-77
2022/04/27 07:14:54;;;;;;;19.65;15.07;;;14.50;79.80;;;;;;5116407;28;20019;-75
2022/04/27 07:17:20;;;;;;;21.23;14.55;;;14.50;79.80;;;;;;5116270;28;20494;-76
2022/04/27 07:19:45;;;;;;;20.48;15.70;;;14.50;80.00;;;;;;5116281;28;20481;-79
2022/04/27 07:22:12;;;;;;;19.00;14.80;;;14.50;79.90;;;;;;5113445;28;20081;-78
2022/04/27 07:24:38;;;;;;;20.30;15.07;;;14.50;80.00;;;;;;5115970;28;20015;-75
2022/04/27 07:27:05;;;;;;;18.23;14.45;;;14.50;80.10;;;;;;5110665;28;20095;-76
2022/04/27 07:29:31;;;;;;;19.00;14.13;;;14.50;79.80;;;;;;5109839;28;20024;-76
2022/04/27 07:31:59;;;;;;;20.33;15.80;;;14.50;79.90;;;;;;5102391;28;20140;-77
2022/04/27 07:34:25;;;;;;;24.13;15.25;;;14.50;79.60;;;;;;5105170;28;20073;-77
2022/04/27 07:36:51;;;;;;;19.70;14.57;;;14.50;79.50;;;;;;5100643;28;20031;-76
2022/04/27 07:39:17;;;;;;;19.50;13.57;;;14.50;79.60;;;;;;5102769;28;20036;-77
2022/04/27 07:41:45;;;;;;;18.27;14.15;;;14.50;80.00;;;;;;5111394;28;20063;-78
2022/04/27 07:44:12;;;;;;;19.52;14.50;;;14.50;80.50;;;;;;5106239;28;20094;-76
2022/04/27 07:46:37;;;;;;;20.30;14.68;;;14.50;80.20;;;;;;5095670;28;20008;-78
2022/04/27 07:49:03;;;;;;;18.48;13.57;;;14.60;80.40;;;;;;5108414;28;20027;-76
2022/04/27 07:51:29;;;;;;;19.70;14.93;;;14.70;80.60;;;;;;5115331;28;20196;-74
2022/04/27 07:53:55;;;;;;;19.67;14.95;;;14.70;80.30;;;;;;5107800;27;20024;-76
2022/04/27 07:56:21;;;;;;;19.23;13.90;;;14.80;80.40;;;;;;5110473;28;20036;-75
2022/04/27 07:58:46;;;;;;;17.85;13.90;;;14.90;80.50;;;;;;5107647;27;20051;-74
2022/04/27 08:01:12;;;;;;;22.17;13.90;;;14.90;80.50;;;;;;5107466;28;20388;-77
2022/04/27 08:03:38;;;;;;;18.90;13.77;;;15.00;80.70;;;;;;5099697;28;20457;-75
2022/04/27 08:06:04;;;;;;;16.13;13.95;;;15.10;80.60;;;;;;5106556;28;20034;-76
2022/04/27 08:08:34;;;;;;;18.48;13.05;;;15.20;80.10;;;;;;5102018;28;20050;-76
2022/04/27 08:11:00;;;;;;;14.88;12.63;;;15.30;79.40;;;;;;5094990;28;20059;-77
2022/04/27 08:13:25;;;;;;;15.00;12.45;;;15.30;79.60;;;;;;5093924;28;20058;-74
2022/04/27 08:15:51;;;;;;;13.43;11.05;;;15.30;78.20;;;;;;5094163;28;20031;-76
2022/04/27 08:18:17;;;;;;;16.60;13.68;;;15.40;78.70;;;;;;5099056;28;20028;-76
2022/04/27 08:23:32;;;;;;;13.95;11.75;;;15.40;77.30;;;;;;5115157;28;20404;-75
2022/04/27 08:26:00;;;;;;;13.88;11.77;;;15.40;76.80;;;;;;5113558;28;20030;-75
2022/04/27 08:28:27;;;;;;;13.07;11.23;;;15.40;75.60;;;;;;5107328;28;20031;-74
2022/04/27 08:30:54;;;;;;;13.05;10.77;;;15.30;75.20;;;;;;5096888;28;20024;-75
2022/04/27 08:33:20;;;;;;;15.82;11.75;;;15.20;74.80;;;;;;5102541;28;20024;-74
2022/04/27 08:35:47;;;;;;;12.30;11.00;;;15.20;75.30;;;;;;5114017;28;20378;-76
2022/04/27 08:38:13;;;;;;;12.07;10.15;;;15.20;75.00;;;;;;5113795;28;20059;-75
2022/04/27 08:40:41;;;;;;;12.30;10.43;;;15.20;74.90;;;;;;5112327;28;20035;-73
2022/04/27 08:43:09;;;;;;;12.60;10.93;;;15.20;74.60;;;;;;5095697;28;20079;-71
2022/04/27 08:45:36;;;;;;;12.38;10.23;;;15.30;74.80;;;;;;5094002;28;20031;-72
2022/04/27 08:48:04;;;;;;;13.05;10.18;;;15.30;75.20;;;;;;5101298;28;20050;-71
2022/04/27 08:50:30;;;;;;;11.50;9.00;;;15.30;73.20;;;;;;5103843;28;20015;-74
2022/04/27 08:52:56;;;;;;;11.98;9.25;;;15.40;73.50;;;;;;5105696;28;20416;-72
2022/04/27 08:55:23;;;;;;;14.98;11.20;;;15.40;73.10;;;;;;5113642;28;20469;-73
2022/04/27 08:57:49;;;;;;;14.52;11.00;;;15.40;72.20;;;;;;5105116;28;20040;-72
2022/04/27 09:00:19;;;;;;;15.48;11.25;;;15.40;71.30;;;;;;5106590;27;20133;-73
2022/04/27 09:02:46;;;;;;;15.02;11.15;;;15.30;70.30;;;;;;5107271;28;20028;-73
2022/04/27 09:05:13;;;;;;;15.85;11.15;;;15.30;70.60;;;;;;5100048;28;20027;-73
2022/04/27 09:07:47;;;;;;;16.65;11.88;;;15.20;70.80;;;;;;5093607;28;20035;-74
2022/04/27 09:10:14;;;;;;;15.10;12.20;;;15.20;70.90;;;;;;5100381;28;20500;-76
2022/04/27 09:12:51;;;;;;;16.40;11.88;;;15.20;71.60;;;;;;5110752;28;20058;-75
2022/04/27 09:15:20;;;;;;;21.08;13.90;;;15.20;72.00;;;;;;5093591;28;20339;-72
2022/04/27 09:20:50;;;;;;;16.65;12.48;;;15.30;72.00;;;;;;5098116;28;20516;-74
2022/04/27 09:23:24;;;;;;;13.93;11.57;;;15.30;71.70;;;;;;5093373;28;20107;-71
2022/04/27 09:25:59;;;;;;;16.88;12.70;;;15.40;72.20;;;;;;5093279;28;20023;-72
2022/04/27 09:28:29;;;;;;;17.42;12.52;;;15.50;72.70;;;;;;5093163;28;20478;-77
2022/04/27 09:30:56;;;;;;;13.18;10.98;;;15.50;72.60;;;;;;5101673;28;20433;-74
2022/04/27 09:33:33;;;;;;;13.88;11.32;;;15.60;73.60;;;;;;5096020;28;20027;-77
2022/04/27 09:35:59;;;;;;;13.13;10.75;;;15.70;72.60;;;;;;5094213;28;20051;-75
2022/04/27 09:38:26;;;;;;;13.65;11.30;;;15.80;71.90;;;;;;5093324;28;20020;-75
2022/04/27 09:40:58;;;;;;;19.27;10.27;;;15.90;71.80;;;;;;5106634;28;20031;-72
2022/04/27 09:43:47;;;;;;;13.77;10.48;;;15.90;69.90;;;;;;5093319;28;20012;-74
2022/04/27 09:46:23;;;;;;;12.40;9.82;;;16.00;69.00;;;;;;5092960;28;20023;-76
2022/04/27 09:49:07;;;;;;;12.10;10.18;;;16.10;70.30;;;;;;5110105;28;20034;-75
2022/04/27 09:51:34;;;;;;;12.77;9.90;;;16.20;68.50;;;;;;5095497;28;20532;-76
2022/04/27 09:54:01;;;;;;;12.13;10.05;;;16.20;68.80;;;;;;5093102;28;20469;-70
2022/04/27 09:56:38;;;;;;;10.77;9.15;;;16.30;67.80;;;;;;5093052;28;20111;-70
2022/04/27 09:59:09;;;;;;;12.10;8.90;;;16.30;67.50;;;;;;5100126;28;20036;-70
2022/04/27 10:01:36;;;;;;;9.70;8.07;;;16.50;69.00;;;;;;5112268;28;20384;-70
2022/04/27 10:04:06;;;;;;;10.10;8.38;;;16.60;70.40;;;;;;5113205;28;20106;-69
2022/04/27 10:06:34;;;;;;;12.50;9.38;;;16.80;69.80;;;;;;5113414;28;20019;-70
2022/04/27 10:09:02;;;;;;;9.07;7.65;;;16.90;68.60;;;;;;5113367;28;20031;-71
2022/04/27 10:11:29;;;;;;;14.52;9.65;;;17.00;67.20;;;;;;5113406;28;20077;-70
2022/04/27 10:13:55;;;;;;;8.55;7.47;;;17.10;66.10;;;;;;5113159;28;20463;-70
2022/04/27 10:16:25;;;;;;;8.77;7.85;;;17.20;66.00;;;;;;5113300;28;20028;-70
2022/04/27 10:18:52;;;;;;;8.77;7.72;;;17.30;66.00;;;;;;5113207;28;20102;-70
2022/04/27 10:21:39;;;;;;;8.45;7.53;;;17.40;65.50;;;;;;5113200;28;20130;-70
2022/04/27 10:24:07;;;;;;;8.57;6.75;;;17.40;64.70;;;;;;5113090;28;20358;-70
2022/04/27 10:26:33;;;;;;;7.57;6.65;;;17.50;65.40;;;;;;5113256;28;20022;-70
2022/04/27 10:29:06;;;;;;;7.18;6.43;;;17.60;65.90;;;;;;5112892;28;20028;-70
2022/04/27 10:31:45;;;;;;;7.13;6.43;;;17.70;66.50;;;;;;5113002;28;20046;-70
2022/04/27 10:34:21;;;;;;;8.20;6.90;;;17.80;67.10;;;;;;5113079;28;20084;-71
2022/04/27 10:36:49;;;;;;;7.57;6.78;;;17.80;64.70;;;;;;5112966;28;20035;-70
2022/04/27 10:39:20;;;;;;;6.55;5.90;;;17.90;64.60;;;;;;5111846;28;20019;-70
2022/04/27 10:42:05;;;;;;;7.55;6.07;;;17.80;63.00;;;;;;5112720;28;20161;-70
2022/04/27 10:44:53;;;;;;;7.68;6.82;;;17.80;62.30;;;;;;5112855;28;20024;-70
2022/04/27 10:47:21;;;;;;;8.70;6.40;;;17.60;62.00;;;;;;5113026;28;20361;-71
2022/04/27 10:50:08;;;;;;;6.85;6.05;;;17.50;61.60;;;;;;5097534;28;20031;-70
2022/04/27 10:52:53;;;;;;;8.50;6.35;;;17.40;62.20;;;;;;5090252;28;20031;-70
2022/04/27 10:55:41;;;;;;;8.45;7.45;;;17.30;63.40;;;;;;5092397;28;20024;-70
2022/04/27 10:58:24;;;;;;;11.55;7.68;;;17.20;62.50;;;;;;5093301;28;20028;-71
2022/04/27 11:01:02;;;;;;;12.80;7.90;;;17.00;61.50;;;;;;5096132;28;20036;-71
2022/04/27 11:03:36;;;;;;;10.65;7.95;;;16.90;61.50;;;;;;5094615;28;20020;-70
2022/04/27 11:06:07;;;;;;;9.55;7.57;;;16.80;61.40;;;;;;5096191;28;20028;-71
2022/04/27 11:08:53;;;;;;;9.15;7.47;;;16.80;62.70;;;;;;5096111;28;20058;-70
2022/04/27 11:11:22;;;;;;;9.27;7.95;;;16.70;62.80;;;;;;5096034;28;20032;-70
2022/04/27 11:13:50;;;;;;;11.15;7.47;;;16.70;63.50;;;;;;5094767;28;20055;-71
2022/04/27 11:16:16;;;;;;;9.90;8.38;;;16.70;63.80;;;;;;5095933;28;20024;-71
2022/04/27 11:18:52;;;;;;;8.15;7.30;;;16.70;63.80;;;;;;5095887;28;20028;-70
2022/04/27 11:21:19;;;;;;;9.65;7.68;;;16.70;64.70;;;;;;5095965;28;20434;-71
2022/04/27 11:23:46;;;;;;;8.55;6.38;;;16.70;65.50;;;;;;5095756;28;20035;-70
2022/04/27 11:26:13;;;;;;;9.52;6.57;;;16.80;66.50;;;;;;5095798;28;20020;-71
2022/04/27 11:28:42;;;;;;;8.88;7.07;;;16.90;66.90;;;;;;5095639;28;20020;-71
2022/04/27 11:31:12;;;;;;;7.13;6.05;;;17.00;67.80;;;;;;5095657;28;20500;-71
2022/04/27 11:33:42;;;;;;;7.50;6.05;;;17.00;64.00;;;;;;5095563;28;20077;-71
2022/04/27 11:36:22;;;;;;;7.80;6.28;;;17.10;63.90;;;;;;5095628;28;20107;-71
2022/04/27 11:38:48;;;;;;;10.43;6.40;;;17.10;63.60;;;;;;5095651;28;20052;-71
2022/04/27 11:41:22;;;;;;;7.70;6.53;;;17.10;63.10;;;;;;5095491;28;20021;-72
2022/04/27 11:43:50;;;;;;;7.77;5.43;;;17.10;63.50;;;;;;5095190;28;20022;-72
2022/04/27 11:46:16;;;;;;;5.82;5.28;;;17.20;63.00;;;;;;5095302;28;20262;-72
2022/04/27 11:48:52;;;;;;;5.47;4.78;;;17.30;62.70;;;;;;5095242;28;20028;-71
2022/04/27 11:51:18;;;;;;;6.35;4.78;;;17.40;63.60;;;;;;5095290;28;20065;-72
2022/04/27 11:53:49;;;;;;;11.45;4.60;;;17.60;65.10;;;;;;5095245;28;20028;-72
2022/04/27 11:56:17;;;;;;;5.90;4.68;;;17.60;65.20;;;;;;5095168;28;20052;-71
2022/04/27 11:58:45;;;;;;;5.43;4.68;;;17.80;64.30;;;;;;5094911;28;20427;-72
2022/04/27 12:01:19;;;;;;;5.60;4.60;;;17.80;62.90;;;;;;5095162;28;20016;-72
2022/04/27 12:03:45;;;;;;;5.13;4.18;;;17.70;62.30;;;;;;5094917;28;20024;-72
2022/04/27 12:06:17;;;;;;;6.03;3.90;;;17.60;60.90;;;;;;5094964;28;20031;-71
2022/04/27 12:08:43;;;;;;;5.28;3.92;;;17.60;61.40;;;;;;5094777;28;20024;-73
2022/04/27 12:11:09;;;;;;;4.32;3.80;;;17.50;62.60;;;;;;5094902;28;20504;-72
2022/04/27 12:13:35;;;;;;;5.30;4.07;;;17.40;63.30;;;;;;5094862;28;20038;-72
2022/04/27 12:16:01;;;;;;;4.95;4.05;;;17.40;64.30;;;;;;5093493;28;20035;-73
2022/04/27 12:18:31;;;;;;;6.38;4.35;;;17.40;64.90;;;;;;5093382;28;20570;-73
2022/04/27 12:20:57;;;;;;;8.02;4.18;;;17.40;65.80;;;;;;5094611;28;20481;-73
2022/04/27 12:23:36;;;;;;;4.28;3.00;;;17.50;65.70;;;;;;5094650;28;20031;-72
2022/04/27 12:26:02;;;;;;;4.40;2.03;;;17.50;64.30;;;;;;5094511;28;20033;-72
2022/04/27 12:28:32;;;;;;;4.97;2.17;;;17.60;62.70;;;;;;5094441;28;20024;-71
2022/04/27 12:31:04;;;;;;;2.33;2.13;;;17.60;63.10;;;;;;5094515;28;20381;-71
2022/04/27 12:33:36;;;;;;;2.10;1.90;;;17.70;63.20;;;;;;5094435;28;20555;-73
2022/04/27 12:39:05;;;;;;;2.17;1.80;;;18.00;66.30;;;;;;5094440;28;20492;-71
2022/04/27 12:41:33;;;;;;;3.00;2.00;;;18.20;64.50;;;;;;5094327;28;20024;-72
2022/04/27 12:44:12;;;;;;;3.50;2.28;;;18.40;64.10;;;;;;5094157;28;20413;-73
2022/04/27 12:46:54;;;;;;;2.78;2.03;;;18.60;61.30;;;;;;5093936;28;20384;-72
2022/04/27 12:49:25;;;;;;;2.75;2.20;;;18.80;60.80;;;;;;5093869;28;20024;-72
2022/04/27 12:51:51;;;;;;;2.03;1.77;;;19.00;61.20;;;;;;5093779;28;20469;-72
2022/04/27 12:54:18;;;;;;;2.28;1.63;;;19.20;62.10;;;;;;5094008;28;20040;-73
2022/04/27 12:56:44;;;;;;;2.00;1.52;;;19.30;62.20;;;;;;5094012;28;20039;-72
2022/04/27 12:59:12;;;;;;;2.20;1.70;;;19.50;62.10;;;;;;5093663;28;20052;-72
2022/04/27 13:01:39;;;;;;;1.73;1.60;;;19.70;61.30;;;;;;5093904;28;20022;-73